^^
Saratoga-Weather Station Historical Data
Daily Summary for February 28, 2021 Units:  English    Metric   Both
Daily Weekly Monthly Yearly Custom
  High: Low: Average:
Temperature: 42.1 °F 35.4 °F 37.8 °F
Dew Point: 34.7 °F 31.6 °F 33.4 °F
Humidity: 91% 75% 84%
Wind Speed: 10.1mph 0mph 1.9mph
Wind Gust: 15mph - -
Wind- - East
Pressure: 30.6 in 30.5 in -
Precipitation: 0 in    
Historical Graphs
 
 
Tabular Data for February 28, 2021
Time Temperature Dew Point Pressure Wind Wind Speed Wind Gust Humidity Rainfall Rate (Hourly) solar
00:00 38.3 °F 34.2 °F 30.6 in Calm   1 mph 85% 0 in 0 W/m2
00:05 37.9 °F 33.8 °F 30.6 in SE 0.9 mph 2 mph 85% 0 in 0 W/m2
00:10 37.9 °F 34.2 °F 30.6 in Calm   1 mph 86% 0 in 0 W/m2
00:15 37.9 °F 34.3 °F 30.6 in NE 0.9 mph 1 mph 87% 0 in 0 W/m2
00:20 37.9 °F 34.3 °F 30.6 in Calm   1 mph 87% 0 in 0 W/m2
00:25 37.9 °F 34.3 °F 30.6 in North 2.9 mph 3 mph 87% 0 in 0 W/m2
00:30 38.1 °F 34.5 °F 30.6 in East 2.9 mph 6 mph 87% 0 in 0 W/m2
00:35 38.3 °F 34.5 °F 30.6 in Calm   2 mph 86% 0 in 0 W/m2
00:40 38.1 °F 34.3 °F 30.6 in ENE 2.9 mph 6 mph 86% 0 in 0 W/m2
00:45 38.1 °F 34.3 °F 30.6 in Calm   1 mph 86% 0 in 0 W/m2
00:50 37.9 °F 34.2 °F 30.6 in Calm     86% 0 in 0 W/m2
00:55 37.6 °F 33.8 °F 30.6 in Calm   4 mph 86% 0 in 0 W/m2
01:01 37.2 °F 33.8 °F 30.6 in Calm   1 mph 87% 0 in 0 W/m2
01:06 37.2 °F 34 °F 30.6 in Calm   4 mph 88% 0 in 0 W/m2
01:11 37 °F 33.6 °F 30.6 in SW 0.9 mph 2 mph 87% 0 in 0 W/m2
01:16 36.9 °F 33.4 °F 30.6 in SW 0.9 mph 1 mph 87% 0 in 0 W/m2
01:21 36.5 °F 33.1 °F 30.6 in Calm   2 mph 87% 0 in 0 W/m2
01:26 36.1 °F 32.7 °F 30.6 in Calm     87% 0 in 0 W/m2
01:31 36 °F 32.7 °F 30.6 in Calm     88% 0 in 0 W/m2
01:36 35.8 °F 32.5 °F 30.6 in Calm   2 mph 88% 0 in 0 W/m2
01:41 35.6 °F 32.7 °F 30.6 in Calm   2 mph 89% 0 in 0 W/m2
01:46 35.4 °F 32.5 °F 30.6 in SW 2 mph 2 mph 89% 0 in 0 W/m2
01:51 35.4 °F 32.7 °F 30.6 in Calm   3 mph 90% 0 in 0 W/m2
01:56 36 °F 33.6 °F 30.6 in WSW 0.9 mph 2 mph 91% 0 in 0 W/m2
02:01 36.1 °F 33.8 °F 30.6 in Calm     91% 0 in 0 W/m2
02:06 36.7 °F 34.3 °F 30.6 in Calm   2 mph 91% 0 in 0 W/m2
02:11 37 °F 34.3 °F 30.6 in SE 2 mph 2 mph 90% 0 in 0 W/m2
02:16 37.2 °F 34.3 °F 30.6 in East 8.1 mph 9 mph 89% 0 in 0 W/m2
02:31 37.8 °F 34.2 °F 30.6 in ESE 2 mph 6 mph 87% 0 in 0 W/m2
02:41 37.9 °F 34.2 °F 30.6 in East 2 mph 4 mph 86% 0 in 0 W/m2
02:46 37.8 °F 34 °F 30.6 in East 0.9 mph 3 mph 86% 0 in 0 W/m2
02:51 37.6 °F 33.8 °F 30.6 in ESE 2.9 mph 3 mph 86% 0 in 0 W/m2
02:56 37.6 °F 33.8 °F 30.6 in ESE 0.9 mph 2 mph 86% 0 in 0 W/m2
03:01 37.6 °F 33.8 °F 30.6 in Calm   3 mph 86% 0 in 0 W/m2
03:06 37.6 °F 34 °F 30.6 in East 2 mph 4 mph 87% 0 in 0 W/m2
03:16 37.6 °F 34 °F 30.6 in East 2.9 mph 3 mph 87% 0 in 0 W/m2
03:21 37.6 °F 34 °F 30.6 in SE 0.9 mph 3 mph 87% 0 in 0 W/m2
03:26 37.4 °F 33.8 °F 30.6 in East 2 mph 4 mph 87% 0 in 0 W/m2
03:31 37.6 °F 34 °F 30.6 in East 2 mph 3 mph 87% 0 in 0 W/m2
03:36 37.4 °F 33.8 °F 30.6 in ESE 2 mph 3 mph 87% 0 in 0 W/m2
03:41 37.2 °F 33.8 °F 30.6 in Calm   1 mph 87% 0 in 0 W/m2
03:46 37.2 °F 33.8 °F 30.6 in East 2 mph 3 mph 87% 0 in 0 W/m2
03:51 37.2 °F 33.8 °F 30.6 in ESE 2 mph 4 mph 87% 0 in 0 W/m2
03:56 37.2 °F 34 °F 30.6 in ESE 2.9 mph 3 mph 88% 0 in 0 W/m2
04:01 37.4 °F 34.2 °F 30.6 in NE 2 mph 3 mph 88% 0 in 0 W/m2
04:06 37.6 °F 34 °F 30.6 in ESE 2 mph 5 mph 87% 0 in 0 W/m2
04:11 37.8 °F 34.2 °F 30.6 in Calm   6 mph 87% 0 in 0 W/m2
04:16 37.9 °F 34.2 °F 30.6 in East 2.9 mph 4 mph 86% 0 in 0 W/m2
04:21 37.9 °F 33.8 °F 30.6 in ESE 2 mph 5 mph 85% 0 in 0 W/m2
04:26 37.9 °F 33.8 °F 30.6 in East 2.9 mph 4 mph 85% 0 in 0 W/m2
04:31 38.1 °F 34 °F 30.6 in ENE 2 mph 5 mph 85% 0 in 0 W/m2
04:36 38.1 °F 34 °F 30.6 in ESE 2 mph 2 mph 85% 0 in 0 W/m2
04:41 37.9 °F 33.8 °F 30.6 in ESE 0.9 mph 2 mph 85% 0 in 0 W/m2
04:46 37.9 °F 33.8 °F 30.6 in East 0.9 mph 6 mph 85% 0 in 0 W/m2
04:51 37.9 °F 33.6 °F 30.6 in ENE 4 mph 8 mph 84% 0 in 0 W/m2
04:56 38.1 °F 33.8 °F 30.6 in East 0.9 mph 2 mph 84% 0 in 0 W/m2
05:01 38.1 °F 33.8 °F 30.6 in Calm   2 mph 84% 0 in 0 W/m2
05:06 38.1 °F 33.8 °F 30.6 in ENE 2 mph 2 mph 84% 0 in 0 W/m2
05:11 38.1 °F 33.8 °F 30.6 in ENE 2 mph 4 mph 84% 0 in 0 W/m2
05:16 38.1 °F 33.8 °F 30.6 in ESE 0.9 mph 3 mph 84% 0 in 0 W/m2
05:21 38.1 °F 33.4 °F 30.6 in East 2 mph 7 mph 83% 0 in 0 W/m2
05:26 38.1 °F 33.4 °F 30.6 in NE 2 mph 2 mph 83% 0 in 0 W/m2
05:31 38.1 °F 33.4 °F 30.6 in ESE 2.9 mph 6 mph 83% 0 in 0 W/m2
05:36 38.1 °F 33.4 °F 30.6 in ESE 2 mph 6 mph 83% 0 in 0 W/m2
05:41 38.1 °F 33.4 °F 30.6 in East 2 mph 4 mph 83% 0 in 0 W/m2
05:46 38.1 °F 33.4 °F 30.6 in ENE 4 mph 4 mph 83% 0 in 0 W/m2
05:51 38.1 °F 33.1 °F 30.6 in ENE 2 mph 3 mph 82% 0 in 0 W/m2
05:56 38.1 °F 33.1 °F 30.6 in ESE 0.9 mph 2 mph 82% 0 in 0 W/m2
06:01 38.1 °F 33.1 °F 30.6 in NE 2 mph 6 mph 82% 0 in 0 W/m2
06:06 38.1 °F 33.1 °F 30.6 in NE 2 mph 4 mph 82% 0 in 0 W/m2
06:11 38.1 °F 33.1 °F 30.6 in ESE 2 mph 6 mph 82% 0 in 0 W/m2
06:16 38.1 °F 33.1 °F 30.6 in ENE 0.9 mph 3 mph 82% 0 in 0 W/m2
06:22 37.9 °F 32.9 °F 30.6 in Calm   3 mph 82% 0 in 0 W/m2
06:27 37.9 °F 32.9 °F 30.6 in NE 2 mph 7 mph 82% 0 in 0 W/m2
06:32 37.8 °F 32.7 °F 30.6 in Calm   4 mph 82% 0 in 0 W/m2
06:37 37.6 °F 32.5 °F 30.6 in East 2 mph 3 mph 82% 0 in 0 W/m2
06:42 37.4 °F 32.7 °F 30.6 in ESE 0.9 mph 2 mph 83% 0 in 0 W/m2
06:47 37 °F 32.4 °F 30.6 in Calm   4 mph 83% 0 in 0 W/m2
06:52 36.9 °F 32.2 °F 30.6 in ESE 2.9 mph 3 mph 83% 0 in 0 W/m2
06:57 36.7 °F 32.4 °F 30.6 in Calm   2 mph 84% 0 in 0 W/m2
07:02 36.7 °F 32.4 °F 30.6 in ESE 0.9 mph 2 mph 84% 0 in 0 W/m2
07:07 36.3 °F 32 °F 30.6 in SSE 0.9 mph 3 mph 84% 0 in 0 W/m2
07:12 36.1 °F 32 °F 30.6 in East 2 mph 2 mph 85% 0 in 0 W/m2
07:17 36.1 °F 32 °F 30.6 in East 0.9 mph 4 mph 85% 0 in 0 W/m2
07:22 36 °F 31.8 °F 30.6 in Calm   1 mph 85% 0 in 5 W/m2
07:27 36 °F 31.8 °F 30.6 in ESE 2 mph 3 mph 85% 0 in 7 W/m2
07:32 35.8 °F 31.6 °F 30.6 in ESE 0.9 mph 2 mph 85% 0 in 9 W/m2
07:52 36 °F 31.8 °F 30.6 in Calm   2 mph 85% 0 in 16 W/m2
07:57 36 °F 31.8 °F 30.6 in Calm   2 mph 85% 0 in 18 W/m2
08:07 36 °F 31.8 °F 30.6 in East 0.9 mph 2 mph 85% 0 in 21 W/m2
08:12 36 °F 31.8 °F 30.5 in ENE 2 mph 2 mph 85% 0 in 26 W/m2
08:17 36 °F 31.8 °F 30.5 in SE 0.9 mph 1 mph 85% 0 in 25 W/m2
08:22 36.1 °F 32 °F 30.5 in Calm   4 mph 85% 0 in 26 W/m2
08:27 36.3 °F 32.2 °F 30.5 in NE 2.9 mph 3 mph 85% 0 in 28 W/m2
08:32 36.5 °F 32.4 °F 30.5 in SE 4 mph 7 mph 85% 0 in 44 W/m2
08:37 36.9 °F 32.5 °F 30.5 in East 2.9 mph 8 mph 84% 0 in 37 W/m2
08:52 37.9 °F 32.9 °F 30.5 in NE 0.9 mph 6 mph 82% 0 in 162 W/m2
09:02 38.7 °F 33.3 °F 30.5 in ENE 2 mph 8 mph 81% 0 in 183 W/m2
09:07 38.8 °F 33.3 °F 30.5 in ENE 0.9 mph 13 mph 80% 0 in 204 W/m2
09:12 39 °F 33.4 °F 30.5 in ENE 2.9 mph 8 mph 80% 0 in 149 W/m2
09:17 39.4 °F 33.4 °F 30.5 in ESE 2.9 mph 3 mph 79% 0 in 107 W/m2
09:22 39.6 °F 33.6 °F 30.5 in ENE 4 mph 11 mph 79% 0 in 243 W/m2
09:27 39.7 °F 33.8 °F 30.5 in NE 8.9 mph 10 mph 79% 0 in 193 W/m2
09:32 39.9 °F 33.6 °F 30.5 in ESE 10.1 mph 14 mph 78% 0 in 269 W/m2
09:37 40.3 °F 34 °F 30.5 in ENE 2 mph 12 mph 78% 0 in 287 W/m2
09:42 40.5 °F 34.2 °F 30.5 in NE 8.9 mph 14 mph 78% 0 in 301 W/m2
09:47 40.6 °F 34 °F 30.5 in ENE 4 mph 12 mph 77% 0 in 309 W/m2
09:52 40.8 °F 33.8 °F 30.5 in ENE 6 mph 9 mph 76% 0 in 320 W/m2
09:57 41.2 °F 34.5 °F 30.5 in ENE 2 mph 12 mph 77% 0 in 332 W/m2
10:02 41.4 °F 34.3 °F 30.5 in East 8.9 mph 10 mph 76% 0 in 345 W/m2
10:07 41.5 °F 34.5 °F 30.5 in ENE 2.9 mph 9 mph 76% 0 in 353 W/m2
10:12 41.5 °F 34.2 °F 30.5 in ENE 8.1 mph 15 mph 75% 0 in 367 W/m2
10:17 41.7 °F 34.3 °F 30.5 in ENE 4 mph 5 mph 75% 0 in 378 W/m2
10:22 42.1 °F 34.7 °F 30.5 in NE 6 mph 15 mph 75% 0 in 388 W/m2
Juneau County Weather
Compliments of Weather Underground - 2 mb